Latest Weather Observations for Falls Creek

IDV60801

Issued at 1:03 pm EST Thursday 25 May 2017 (issued every 30 minutes, with the page automatically refreshed every 10 minutes)

About weather observations | Map of weather stations | Latest weather observations for VIC | Other Formats
Station Details ID: 083084 Name: FALLS CREEK Lat: -36.87 Lon: 147.28 Height: 1765.0 m
Data from the previous 72 hours. | See also: Recent months at Falls Creek
Date/Time
EST
Temp
°C
App
Temp
°C
Dew
Point
°C
Rel
Hum
%
Delta-T
°C
Wind Press
QNH
hPa
Press
MSL
hPa
Rain since
9am
mm
Dir  Spd
km/h
Gust
km/h
Spd
kts
Gust
kts
25/01:00pm 4.4 -1.3 2.9 90 0.7 WNW 22 32 12 17 1020.3 1019.8 0.0
25/12:30pm 4.7 -1.5 1.9 82 1.3 WNW 24 37 13 20 1020.7 1020.2 0.0
25/12:00pm 4.8 -2.5 -0.2 70 2.1 WNW 28 39 15 21 1020.8 1020.3 0.0
25/11:30am 4.5 -2.0 0.1 73 1.9 WNW 24 30 13 16 1021.3 1020.8 0.0
25/11:00am 5.0 -0.9 -1.0 65 2.5 WNW 20 30 11 16 1021.7 1021.2 0.0
25/10:30am 5.6 -0.6 -0.2 66 2.5 WNW 22 32 12 17 1021.7 1021.2 0.0
25/10:00am 6.4 0.9 0.7 67 2.5 WNW 19 28 10 15 1021.5 1021.0 0.0
25/09:30am 6.4 1.2 2.5 76 1.8 WNW 19 26 10 14 1021.5 1021.0 0.0
25/09:00am 5.6 0.4 2.6 81 1.4 W 19 28 10 15 1021.4 1020.9 0.0
25/08:30am 5.0 -1.3 1.8 80 1.4 WSW 24 32 13 17 1021.3 1020.8 0.0
25/08:00am 4.2 -1.5 -1.0 69 2.2 SW 19 22 10 12 1021.1 1020.5 0.0
25/07:30am 4.2 -2.3 -2.4 62 2.6 SW 22 26 12 14 1020.9 1020.4 0.0
25/07:00am 4.5 -1.8 -3.7 55 3.2 SW 20 26 11 14 1020.6 1020.0 0.0
25/06:30am 4.1 -2.9 -3.4 58 2.9 SW 24 26 13 14 1020.2 1019.7 0.0
25/06:00am 4.2 -3.2 -7.5 42 4.1 SW 24 28 13 15 1019.8 1019.2 0.0
25/05:30am 4.2 -2.6 -9.2 37 4.8 SW 20 26 11 14 1019.6 1019.1 0.0
25/05:00am 4.3 -3.4 -10.5 33 5.1 SW 24 32 13 17 1019.3 1018.7 0.0
25/04:30am 2.5 -3.8 -5.6 55 3.1 SW 19 26 10 14 1019.3 1018.7 0.0
25/04:00am 2.7 -2.4 -4.9 57 3.0 WSW 13 19 7 10 1019.2 1018.6 0.0
25/03:30am 3.2 -2.8 -3.1 63 2.5 SW 19 22 10 12 1019.2 1018.6 0.0
25/03:00am 3.3 -2.5 -1.6 70 2.0 SW 19 22 10 12 1019.2 1018.6 0.0
25/02:30am 2.9 -1.6 -0.4 79 1.4 SW 13 20 7 11 1019.4 1018.8 0.0
25/02:00am 2.3 -2.6 -0.3 83 1.1 SW 15 19 8 10 1019.3 1018.7 0.0
25/01:30am 0.1 -4.4 0.0 99 0.0 W 13 17 7 9 1019.4 1018.8 0.0
25/01:00am 0.5 -2.6 0.4 99 0.0 WNW 6 7 3 4 1019.5 1018.9 0.0
25/12:30am 1.1 -1.9 1.0 99 0.0 W 6 9 3 5 1019.5 1018.9 0.0
25/12:00am 1.3 -1.8 1.2 99 0.0 NW 7 11 4 6 1019.8 1019.2 0.0
 
Date/Time
EST
Temp
°C
App
Temp
°C
Dew
Point
°C
Rel
Hum
%
Delta-T
°C
Wind Press
QNH
hPa
Press
MSL
hPa
Rain since
9am
mm
Dir  Spd
km/h
Gust
km/h
Spd
kts
Gust
kts
24/11:30pm 1.2 -1.9 1.1 99 0.0 N 7 15 4 8 1019.6 1019.1 0.0
24/11:00pm 1.2 -1.9 1.1 99 0.0 NNW 7 15 4 8 1019.5 1018.9 0.0
24/10:30pm 1.1 -2.4 1.0 99 0.0 NW 9 13 5 7 1019.4 1018.8 0.0
24/10:00pm 1.0 -2.9 0.9 99 0.0 W 11 19 6 10 1019.3 1018.7 0.0
24/09:30pm 1.1 -4.5 1.0 99 0.0 WSW 20 32 11 17 1019.4 1018.8 0.0
24/09:00pm 1.1 -5.3 1.0 99 0.0 WSW 24 30 13 16 1018.9 1018.3 0.0
24/08:30pm 1.6 -3.8 1.5 99 0.0 WSW 19 26 10 14 1018.9 1018.3 0.0
24/08:00pm 1.7 -3.8 1.6 99 0.0 WSW 20 30 11 16 1018.8 1018.2 0.0
24/07:30pm 1.7 -3.3 1.6 99 0.0 WSW 17 30 9 16 1018.6 1017.9 0.0
24/07:00pm 1.6 -3.4 1.3 98 0.1 W 17 28 9 15 1018.4 1017.8 0.0
24/06:30pm 1.7 -3.6 1.6 99 0.0 WNW 19 28 10 15 1018.2 1017.6 0.0
24/06:00pm 1.7 -4.2 1.4 98 0.1 WSW 22 33 12 18 1018.0 1017.3 0.0
24/05:30pm 1.7 -3.7 1.3 97 0.2 W 19 30 10 16 1017.4 1016.7 0.0
24/05:00pm 1.6 -4.0 1.3 98 0.1 W 20 30 11 16 1017.1 1016.5 0.0
24/04:30pm 1.7 -3.3 1.4 98 0.1 W 17 24 9 13 1016.9 1016.2 0.0
24/04:00pm 1.8 -2.8 1.5 98 0.1 WNW 15 22 8 12 1016.4 1015.7 0.0
24/03:30pm 1.9 -4.4 1.6 98 0.1 WNW 24 37 13 20 1015.8 1015.1 0.0
24/03:00pm 2.1 -5.4 1.5 96 0.3 WNW 30 44 16 24 1015.5 1014.7 0.0
24/02:46pm 2.0 -5.0 1.7 98 0.1 WNW 28 46 15 25 1015.4 1014.6 0.0
24/02:30pm 2.0 -5.0 1.9 99 0.0 WNW 28 43 15 23 1015.2 1014.5 0.0
24/02:00pm 2.0 -5.0 1.9 99 0.0 WNW 28 41 15 22 1015.0 1014.2 0.0
24/01:46pm 2.1 -4.9 2.0 99 0.0 WNW 28 46 15 25 1015.0 1014.2 0.0
24/01:30pm 1.9 -5.5 1.8 99 0.0 WNW 30 44 16 24 1015.0 1014.2 0.0
24/01:00pm 2.1 -4.1 2.0 99 0.0 WNW 24 37 13 20 1014.9 1014.1 0.0
24/12:30pm 2.3 -3.1 2.2 99 0.0 WNW 20 37 11 20 1015.0 1014.2 0.0
24/12:00pm 1.9 -3.6 1.8 99 0.0 WNW 20 33 11 18 1015.4 1014.6 0.0
24/11:30am 2.1 -3.4 2.0 99 0.0 NW 20 35 11 19 1015.6 1014.8 0.0
24/11:00am 1.9 -3.4 1.8 99 0.0 WNW 19 30 10 16 1015.7 1015.0 0.0
24/10:30am 2.2 -3.1 2.1 99 0.0 WNW 19 37 10 20 1015.5 1014.7 0.0
24/10:00am 1.4 -6.5 1.3 99 0.0 W 32 50 17 27 1015.4 1014.6 0.0
24/09:45am 1.3 -5.8 1.2 99 0.0 W 28 50 15 27 1015.4 1014.6 0.0
24/09:30am 1.6 -3.8 1.5 99 0.0 WNW 19 30 10 16 1015.2 1014.5 0.0
24/09:00am 1.5 -3.5 1.4 99 0.0 WNW 17 28 9 15 1015.0 1014.2 5.8
24/08:30am 1.5 -3.5 1.4 99 0.0 NW 17 30 9 16 1014.5 1013.7 5.8
24/08:00am 1.4 -4.6 1.3 99 0.0 NW 22 35 12 19 1014.4 1013.6 5.8
24/07:30am 1.8 -4.5 1.7 99 0.0 WNW 24 39 13 21 1014.3 1013.5 5.8
24/07:00am 2.1 -3.8 2.0 99 0.0 WNW 22 39 12 21 1013.8 1013.0 5.8
24/06:30am 2.3 -5.0 2.2 99 0.0 WNW 30 41 16 22 1013.7 1012.9 5.8
24/06:00am 2.7 -4.2 2.6 99 0.0 NW 28 46 15 25 1013.5 1012.6 5.8
24/05:40am 2.7 -4.2 2.6 99 0.0 WNW 28 46 15 25 1013.5 1012.6 5.8
24/05:30am 2.7 -3.4 2.6 99 0.0 NW 24 43 13 23 1013.6 1012.7 5.8
24/05:00am 2.9 -3.6 2.8 99 0.0 WNW 26 43 14 23 1013.6 1012.7 5.8
24/04:33am 3.4 -3.7 3.3 99 0.0 NW 30 48 16 26 1013.5 1012.6 5.6
24/04:30am 3.2 -4.4 3.1 99 0.0 NW 32 48 17 26 1013.2 1012.4 5.4
24/04:02am 3.6 -3.9 3.5 99 0.0 NW 32 50 17 27 1013.1 1012.2 5.2
24/04:00am 3.7 -3.4 3.6 99 0.0 NW 30 46 16 25 1013.3 1012.5 5.2
24/03:30am 3.7 -3.4 3.6 99 0.0 NW 30 50 16 27 1013.5 1012.6 4.6
24/03:26am 3.7 -3.4 3.6 99 0.0 NW 30 50 16 27 1013.5 1012.6 4.6
24/03:15am 3.6 -3.1 3.5 99 0.0 NNW 28 46 15 25 1013.1 1012.2 4.6
24/03:00am 3.7 -1.9 3.6 99 0.0 NW 22 41 12 22 1013.8 1013.0 4.6
24/02:30am 3.7 -3.0 3.6 99 0.0 NNW 28 44 15 24 1014.2 1013.4 4.6
24/02:00am 3.5 -3.2 3.4 99 0.0 NNW 28 44 15 24 1014.4 1013.6 4.6
24/01:30am 3.3 -2.3 3.2 99 0.0 NNW 22 32 12 17 1014.6 1013.9 4.6
24/01:00am 3.9 -2.0 3.8 99 0.0 NW 24 43 13 23 1015.2 1014.5 3.4
24/12:59am 4.0 -1.5 3.9 99 0.0 NNW 22 33 12 18 1015.4 1014.6 3.4
24/12:30am 4.6 -3.6 4.5 99 0.0 N 37 56 20 30 1015.1 1014.3 1.0
24/12:23am 4.7 -2.8 4.6 99 0.0 N 33 56 18 30 1015.1 1014.3 0.8
24/12:00am 4.8 -2.7 4.7 99 0.0 NNW 33 48 18 26 1015.2 1014.5 0.0
 
Date/Time
EST
Temp
°C
App
Temp
°C
Dew
Point
°C
Rel
Hum
%
Delta-T
°C
Wind Press
QNH
hPa
Press
MSL
hPa
Rain since
9am
mm
Dir  Spd
km/h
Gust
km/h
Spd
kts
Gust
kts
23/11:30pm 5.1 -2.1 5.0 99 0.0 NNW 32 44 17 24 1015.6 1014.8 0.0
23/11:00pm 4.9 -2.3 4.8 99 0.0 NNW 32 44 17 24 1016.4 1015.7 0.0
23/10:30pm 4.9 -2.5 4.8 99 0.0 NNW 33 43 18 23 1016.8 1016.1 0.0
23/10:00pm 4.7 -2.6 4.6 99 0.0 NNW 32 48 17 26 1017.0 1016.3 0.0
23/09:30pm 4.7 -2.2 4.6 99 0.0 NNW 30 43 16 23 1017.3 1016.6 0.0
23/09:00pm 4.7 -2.2 4.6 99 0.0 NNW 30 46 16 25 1017.6 1016.9 0.0
23/08:30pm 4.7 -2.2 4.6 99 0.0 NNW 30 37 16 20 1017.6 1016.9 0.0
23/08:00pm 4.6 -1.2 4.5 99 0.0 NNW 24 33 13 18 1017.7 1017.1 0.0
23/07:30pm 4.5 -1.3 4.4 99 0.0 NNW 24 37 13 20 1017.9 1017.2 0.0
23/07:00pm 4.4 -1.0 4.3 99 0.0 NNW 22 32 12 17 1017.7 1017.1 0.0
23/06:30pm 4.0 -1.9 3.9 99 0.0 NNW 24 33 13 18 1017.7 1017.1 0.0
23/06:00pm 4.1 -2.2 4.0 99 0.0 NNW 26 35 14 19 1017.6 1016.9 0.0
23/05:30pm 4.2 -1.7 4.1 99 0.0 NNW 24 37 13 20 1017.6 1016.9 0.0
23/05:00pm 4.2 -2.0 4.1 99 0.0 NNW 26 39 14 21 1017.5 1016.8 0.0
23/04:30pm 4.2 -2.0 4.1 99 0.0 NNW 26 41 14 22 1017.6 1016.9 0.0
23/04:00pm 4.2 -2.4 4.1 99 0.0 NNW 28 39 15 21 1017.5 1016.8 0.0
23/03:30pm 4.1 -3.3 4.0 99 0.0 N 32 43 17 23 1017.6 1016.9 0.0
23/03:00pm 4.4 -2.2 4.3 99 0.0 N 28 37 15 20 1018.0 1017.3 0.0
23/02:30pm 4.5 -2.1 4.4 99 0.0 N 28 43 15 23 1018.3 1017.7 0.0
23/02:00pm 4.7 -1.8 4.6 99 0.0 NNW 28 39 15 21 1018.6 1017.9 0.0
23/01:30pm 5.2 -1.2 5.1 99 0.0 NNW 28 39 15 21 1018.7 1018.1 0.0
23/01:00pm 5.1 -1.0 5.0 99 0.0 NNW 26 41 14 22 1019.2 1018.6 0.0
23/12:30pm 5.1 -1.3 5.0 99 0.0 NNW 28 39 15 21 1019.6 1019.1 0.0
23/12:00pm 5.1 -0.6 4.7 97 0.2 NNW 24 35 13 19 1020.1 1019.5 0.0
23/11:30am 6.0 -0.2 4.2 88 0.9 NNW 26 37 14 20 1020.6 1020.0 0.0
23/11:00am 8.0 0.8 2.9 70 2.4 NNW 30 41 16 22 1021.1 1020.5 0.0
23/10:30am 8.1 2.2 1.9 65 2.9 N 22 30 12 16 1021.1 1020.5 0.0
23/10:00am 7.0 0.9 0.2 62 3.0 NNW 22 30 12 16 1021.4 1020.9 0.0
23/09:30am 5.5 -0.2 0.7 71 2.1 NNW 20 28 11 15 1021.9 1021.4 0.0
23/09:00am 5.4 -0.8 -0.2 67 2.4 NNW 22 32 12 17 1022.1 1021.7 0.0
23/08:30am 4.2 -0.9 3.0 92 0.5 NNW 19 26 10 14 1022.3 1021.8 0.0
23/08:00am 3.9 -1.6 3.8 99 0.0 NNW 22 33 12 18 1022.5 1022.0 0.0
23/07:30am 3.9 -2.8 3.8 99 0.0 NNW 28 35 15 19 1022.4 1021.9 0.0
23/07:00am 3.9 -3.2 3.6 98 0.1 NNW 30 37 16 20 1022.3 1021.8 0.0
23/06:30am 4.2 -2.5 1.2 81 1.3 NW 26 35 14 19 1022.0 1021.5 0.0
23/06:00am 3.8 -3.1 2.6 92 0.5 NW 28 37 15 20 1021.9 1021.4 0.0
23/05:30am 4.6 -3.1 -2.7 59 2.9 NW 28 37 15 20 1022.0 1021.5 0.0
23/05:00am 6.1 -1.7 -3.5 50 3.8 NW 28 35 15 19 1021.9 1021.4 0.0
23/04:30am 6.7 -0.3 -3.2 49 4.0 NNW 24 32 13 17 1021.7 1021.2 0.0
23/04:00am 6.6 0.0 -3.3 49 4.0 NNW 22 28 12 15 1021.7 1021.2 0.0
23/03:30am 6.2 -0.8 -3.4 50 3.8 NNW 24 32 13 17 1021.9 1021.4 0.0
23/03:00am 6.7 -0.6 -3.2 49 4.0 NNW 26 32 14 17 1021.9 1021.4 0.0
23/02:30am 6.4 -0.5 -3.0 51 3.8 NNW 24 32 13 17 1022.3 1021.8 0.0
23/02:00am 6.0 -0.9 -2.8 53 3.5 NNW 24 30 13 16 1022.5 1022.0 0.0
23/01:30am 5.8 -1.4 -2.0 57 3.2 NW 26 32 14 17 1022.7 1022.3 0.0
23/01:00am 5.7 -1.1 -1.9 58 3.1 NW 24 32 13 17 1023.0 1022.5 0.0
23/12:30am 6.0 -0.8 -1.9 57 3.3 NW 24 32 13 17 1023.3 1022.9 0.0
23/12:00am 6.4 0.0 -1.5 57 3.3 NW 22 30 12 16 1023.4 1023.0 0.0
 
Date/Time
EST
Temp
°C
App
Temp
°C
Dew
Point
°C
Rel
Hum
%
Delta-T
°C
Wind Press
QNH
hPa
Press
MSL
hPa
Rain since
9am
mm
Dir  Spd
km/h
Gust
km/h
Spd
kts
Gust
kts
22/11:30pm 6.3 -0.4 -1.3 58 3.2 NW 24 32 13 17 1023.7 1023.3 0.0
22/11:00pm 5.8 -1.3 -1.6 59 3.1 NW 26 30 14 16 1023.9 1023.5 0.0
22/10:30pm 6.0 -0.8 -1.6 58 3.2 NW 24 33 13 18 1024.0 1023.6 0.0
22/10:00pm 6.0 -0.8 -1.9 57 3.3 NNW 24 30 13 16 1023.9 1023.5 0.0
22/09:30pm 5.7 -1.8 -1.7 59 3.1 NW 28 33 15 18 1023.9 1023.5 0.0
22/09:00pm 5.8 -1.3 -1.3 60 3.0 NW 26 33 14 18 1023.7 1023.3 0.0
22/08:30pm 5.4 -1.7 -1.1 63 2.7 NW 26 33 14 18 1023.8 1023.4 0.0
22/08:00pm 4.9 -2.4 0.1 71 2.1 NW 28 33 15 18 1023.6 1023.1 0.0
22/07:30pm 5.4 -1.9 -0.2 67 2.4 NW 28 35 15 19 1023.3 1022.9 0.0
22/07:00pm 5.7 -1.3 -0.8 63 2.7 NW 26 32 14 17 1023.2 1022.8 0.0
22/06:30pm 6.0 -0.6 -0.7 62 2.9 NNW 24 33 13 18 1023.2 1022.8 0.0
22/06:00pm 6.2 -0.1 -1.0 60 3.0 NNW 22 30 12 16 1022.8 1022.4 0.0
22/05:30pm 5.9 0.1 0.0 66 2.6 NNW 20 26 11 14 1022.7 1022.3 0.0
22/05:00pm 6.1 0.8 1.6 73 2.0 NNW 19 22 10 12 1022.7 1022.3 0.0
22/04:30pm 6.9 2.8 2.4 73 2.1 NNW 13 17 7 9 1022.8 1022.4 0.0
22/04:00pm 7.7 4.1 3.0 72 2.2 NNW 11 15 6 8 1023.0 1022.5 0.0
22/03:30pm 8.2 4.7 3.7 73 2.2 N 11 17 6 9 1023.2 1022.8 0.0
22/03:00pm 8.4 4.0 2.8 68 2.6 N 15 20 8 11 1023.2 1022.8 0.0
22/02:30pm 8.9 5.1 3.7 70 2.5 NNW 13 19 7 10 1023.2 1022.8 0.0
22/02:00pm 9.0 5.1 3.6 69 2.6 N 13 20 7 11 1023.4 1023.0 0.0
22/01:30pm 9.0 4.3 3.4 68 2.7 N 17 22 9 12 1023.4 1023.0 0.0

Other Formats:

Comma delimited format used in spreadsheet applications
http://www.bom.gov.au/fwo/IDV60801/IDV60801.94903.axf

JavaScript Object Notation format (JSON) in row-major order
http://www.bom.gov.au/fwo/IDV60801/IDV60801.94903.json